createdAt,value
2019-05-17T00:00:01.960Z,1018.26
2019-05-17T00:01:02.424Z,1018.15
2019-05-17T00:02:02.997Z,1018.26
2019-05-17T00:03:03.577Z,1018.26
2019-05-17T00:04:04.211Z,1018.18
2019-05-17T00:05:06.749Z,1018.23
2019-05-17T00:06:06.724Z,1018.23
2019-05-17T00:07:06.486Z,1018.23
2019-05-17T00:08:07.819Z,1018.25
2019-05-17T00:09:08.482Z,1018.27
2019-05-17T00:10:09.053Z,1018.27
2019-05-17T00:11:09.665Z,1018.18
2019-05-17T00:12:10.238Z,1018.17
2019-05-17T00:13:14.430Z,1018.18
2019-05-17T00:14:12.375Z,1018.22
2019-05-17T00:15:12.944Z,1018.24
2019-05-17T00:16:13.514Z,1018.19
2019-05-17T00:17:14.086Z,1018.19
2019-05-17T00:18:16.956Z,1018.31
2019-05-17T00:19:16.885Z,1018.25
2019-05-17T00:20:17.708Z,1018.17
2019-05-17T00:21:18.238Z,1018.21
2019-05-17T00:22:18.809Z,1018.20
2019-05-17T00:23:19.380Z,1018.31
2019-05-17T00:24:19.951Z,1018.22
2019-05-17T00:25:20.522Z,1018.32
2019-05-17T00:26:21.094Z,1018.28
2019-05-17T00:27:21.707Z,1018.35
2019-05-17T00:28:22.278Z,1018.23
2019-05-17T00:29:22.850Z,1018.36
2019-05-17T00:30:23.421Z,1018.29
2019-05-17T00:31:26.161Z,1018.21
2019-05-17T00:32:24.606Z,1018.23
2019-05-17T00:33:27.080Z,1018.17
2019-05-17T00:34:27.087Z,1018.19
2019-05-17T00:35:27.682Z,1018.18
2019-05-17T00:36:28.266Z,1018.25
2019-05-17T00:37:28.869Z,1018.20
2019-05-17T00:38:29.438Z,1018.25
2019-05-17T00:39:30.008Z,1018.22
2019-05-17T00:40:30.580Z,1018.31
2019-05-17T00:41:31.149Z,1018.16
2019-05-17T00:42:31.720Z,1018.21
2019-05-17T00:43:32.292Z,1018.31
2019-05-17T00:44:32.862Z,1018.27
2019-05-17T00:45:33.434Z,1018.20
2019-05-17T00:46:34.006Z,1018.23
2019-05-17T00:47:34.578Z,1018.25
2019-05-17T00:48:37.169Z,1018.24
2019-05-17T00:49:37.215Z,1018.21
2019-05-17T00:50:38.285Z,1018.18
2019-05-17T00:51:38.846Z,1018.12
2019-05-17T00:52:39.415Z,1018.18
2019-05-17T00:53:39.990Z,1018.12
2019-05-17T00:54:40.559Z,1018.16
2019-05-17T00:55:41.128Z,1018.23
2019-05-17T00:56:41.699Z,1018.20
2019-05-17T00:57:42.270Z,1018.14
2019-05-17T00:58:42.842Z,1018.22
2019-05-17T00:59:43.413Z,1018.15
2019-05-17T01:00:43.988Z,1018.16
2019-05-17T01:01:46.790Z,1018.15
2019-05-17T01:02:46.849Z,1018.13
2019-05-17T01:03:47.654Z,1018.09
2019-05-17T01:04:47.710Z,1018.19
2019-05-17T01:05:47.948Z,1018.13
2019-05-17T01:06:48.518Z,1018.10
2019-05-17T01:07:49.090Z,1018.13
2019-05-17T01:09:00.566Z,1018.17
2019-05-17T01:09:50.271Z,1018.16
2019-05-17T01:10:50.848Z,1018.20
2019-05-17T01:11:51.465Z,1018.15
2019-05-17T01:12:52.031Z,1018.08
2019-05-17T01:13:52.600Z,1018.14
2019-05-17T01:14:53.172Z,1018.13
2019-05-17T01:15:53.743Z,1018.07
2019-05-17T01:16:56.364Z,1018.19
2019-05-17T01:17:56.314Z,1018.15
2019-05-17T01:18:57.325Z,1018.08
2019-05-17T01:19:57.496Z,1018.10
2019-05-17T01:20:58.060Z,1018.12
2019-05-17T01:21:58.630Z,1018.03
2019-05-17T01:22:59.201Z,1018.09
2019-05-17T01:23:59.778Z,1018.05
2019-05-17T01:25:00.389Z,1018.10
2019-05-17T01:26:00.960Z,1018.03
2019-05-17T01:27:01.531Z,1017.99
2019-05-17T01:28:02.104Z,1017.99
2019-05-17T01:29:02.676Z,1017.99
2019-05-17T01:30:03.246Z,1017.94
2019-05-17T01:31:03.816Z,1017.98
2019-05-17T01:32:06.520Z,1017.97
2019-05-17T01:33:06.593Z,1018.06
2019-05-17T01:34:07.570Z,1017.96
2019-05-17T01:35:07.959Z,1017.96
2019-05-17T01:36:08.531Z,1018.04
2019-05-17T01:37:09.100Z,1017.97
2019-05-17T01:38:09.670Z,1018.00
2019-05-17T01:39:17.734Z,1017.98
2019-05-17T01:40:11.805Z,1017.98
2019-05-17T01:41:12.378Z,1018.02
2019-05-17T01:42:12.947Z,1018.06
2019-05-17T01:43:13.518Z,1018.00
2019-05-17T01:44:16.518Z,1017.99
2019-05-17T01:45:16.722Z,1018.07
2019-05-17T01:46:17.351Z,1018.05
2019-05-17T01:47:17.918Z,1018.03
2019-05-17T01:48:18.489Z,1018.06
2019-05-17T01:49:19.060Z,1018.11
2019-05-17T01:50:19.630Z,1018.04
2019-05-17T01:51:20.203Z,1018.07
2019-05-17T01:52:20.772Z,1018.13
2019-05-17T01:53:21.344Z,1018.13
2019-05-17T01:54:21.913Z,1018.13
2019-05-17T01:55:22.483Z,1018.12
2019-05-17T01:56:23.055Z,1018.09
2019-05-17T01:57:23.625Z,1018.09
2019-05-17T01:58:24.195Z,1018.16
2019-05-17T01:59:26.719Z,1018.18
2019-05-17T02:00:26.667Z,1018.15
2019-05-17T02:01:27.666Z,1018.11
2019-05-17T02:02:28.219Z,1018.16
2019-05-17T02:03:28.792Z,1018.10
2019-05-17T02:04:29.367Z,1018.15
2019-05-17T02:05:29.932Z,1018.15
2019-05-17T02:06:30.505Z,1018.26
2019-05-17T02:07:31.117Z,1018.12
2019-05-17T02:08:31.690Z,1018.15
2019-05-17T02:09:37.205Z,1018.15
2019-05-17T02:10:33.821Z,1018.08
2019-05-17T02:11:34.391Z,1018.14
2019-05-17T02:12:37.004Z,1018.12
2019-05-17T02:13:37.601Z,1018.11
2019-05-17T02:14:37.456Z,1018.09
2019-05-17T02:15:38.088Z,1018.12
2019-05-17T02:16:38.624Z,1018.06
2019-05-17T02:17:39.193Z,1018.06
2019-05-17T02:18:39.770Z,1018.08
2019-05-17T02:19:40.334Z,1018.05
2019-05-17T02:20:40.905Z,1018.09
2019-05-17T02:21:41.476Z,1018.19
2019-05-17T02:22:42.046Z,1018.03
2019-05-17T02:23:42.616Z,1017.97
2019-05-17T02:24:43.188Z,1018.05
2019-05-17T02:25:43.760Z,1018.03
2019-05-17T02:26:46.429Z,1018.03
2019-05-17T02:27:45.893Z,1018.09
2019-05-17T02:28:46.462Z,1018.03
2019-05-17T02:29:47.035Z,1018.02
2019-05-17T02:30:47.608Z,1018.04
2019-05-17T02:31:48.219Z,1018.00
2019-05-17T02:32:48.793Z,1018.08
2019-05-17T02:33:49.360Z,1018.11
2019-05-17T02:34:52.950Z,1018.15
2019-05-17T02:35:53.609Z,1018.06
2019-05-17T02:36:53.377Z,1018.01
2019-05-17T02:37:53.695Z,1017.99
2019-05-17T02:38:54.250Z,1018.02
2019-05-17T02:40:03.192Z,1018.00
2019-05-17T02:40:56.388Z,1018.06
2019-05-17T02:41:56.958Z,1018.06
2019-05-17T02:42:57.527Z,1017.99
2019-05-17T02:43:58.103Z,1018.00
2019-05-17T02:44:58.670Z,1017.95
2019-05-17T02:45:59.288Z,1018.01
2019-05-17T02:47:02.877Z,1018.01
2019-05-17T02:48:03.802Z,1018.03
2019-05-17T02:49:03.094Z,1018.14
2019-05-17T02:50:05.398Z,1018.05
2019-05-17T02:51:05.202Z,1018.08
2019-05-17T02:52:05.780Z,1018.03
2019-05-17T02:53:06.342Z,1018.10
2019-05-17T02:54:06.912Z,1018.06
2019-05-17T02:55:07.481Z,1018.15
2019-05-17T02:56:08.052Z,1018.17
2019-05-17T02:57:08.623Z,1018.26
2019-05-17T02:58:09.196Z,1018.20
2019-05-17T02:59:13.156Z,1018.11
2019-05-17T03:00:13.388Z,1018.20
2019-05-17T03:01:12.943Z,1018.19
2019-05-17T03:02:13.484Z,1018.26
2019-05-17T03:03:14.037Z,1018.22
2019-05-17T03:04:14.610Z,1018.21
2019-05-17T03:05:15.179Z,1018.18
2019-05-17T03:06:15.753Z,1018.19
2019-05-17T03:07:16.322Z,1018.19
2019-05-17T03:08:16.950Z,1018.11
2019-05-17T03:09:17.505Z,1018.16
2019-05-17T03:10:27.533Z,1018.20
2019-05-17T03:11:22.378Z,1018.25
2019-05-17T03:12:23.635Z,1018.25
2019-05-17T03:13:23.408Z,1018.22
2019-05-17T03:14:23.088Z,1018.19
2019-05-17T03:15:23.548Z,1018.24
2019-05-17T03:16:23.950Z,1018.36
2019-05-17T03:17:24.478Z,1018.18
2019-05-17T03:18:25.078Z,1018.29
2019-05-17T03:19:25.664Z,1018.20
2019-05-17T03:20:26.235Z,1018.22
2019-05-17T03:21:26.803Z,1018.30
2019-05-17T03:22:27.391Z,1018.28
2019-05-17T03:23:27.987Z,1018.18
2019-05-17T03:24:28.560Z,1018.27
2019-05-17T03:25:29.139Z,1018.28
2019-05-17T03:26:32.534Z,1018.23
2019-05-17T03:27:33.506Z,1018.26
2019-05-17T03:28:33.747Z,1018.29
2019-05-17T03:29:33.462Z,1018.20
2019-05-17T03:30:36.682Z,1018.36
2019-05-17T03:31:41.532Z,1018.31
2019-05-17T03:32:36.107Z,1018.28
2019-05-17T03:33:35.978Z,1018.33
2019-05-17T03:34:36.822Z,1018.28
2019-05-17T03:35:37.664Z,1018.33
2019-05-17T03:36:37.241Z,1018.27
2019-05-17T03:37:38.203Z,1018.31
2019-05-17T03:38:38.827Z,1018.27
2019-05-17T03:39:42.561Z,1018.26
2019-05-17T03:41:13.826Z,1018.19
2019-05-17T03:41:42.862Z,1018.29
2019-05-17T03:42:43.274Z,1018.35
2019-05-17T03:43:44.353Z,1018.28
2019-05-17T03:44:44.384Z,1018.16
2019-05-17T03:45:45.032Z,1018.27
2019-05-17T03:46:45.635Z,1018.31
2019-05-17T03:47:46.243Z,1018.29
2019-05-17T03:48:46.838Z,1018.30
2019-05-17T03:49:47.414Z,1018.21
2019-05-17T03:50:48.027Z,1018.22
2019-05-17T03:51:48.595Z,1018.15
2019-05-17T03:52:49.166Z,1018.19
2019-05-17T03:53:52.931Z,1018.21
2019-05-17T03:54:53.103Z,1018.21
2019-05-17T03:55:53.936Z,1018.27
2019-05-17T03:56:53.510Z,1018.23
2019-05-17T03:57:54.081Z,1018.27
2019-05-17T03:58:54.709Z,1018.33
2019-05-17T03:59:55.314Z,1018.20
2019-05-17T04:00:55.927Z,1018.28
2019-05-17T04:01:56.537Z,1018.32
2019-05-17T04:02:57.114Z,1018.25
2019-05-17T04:03:57.733Z,1018.23
2019-05-17T04:04:58.340Z,1018.19
2019-05-17T04:05:58.949Z,1018.26
2019-05-17T04:06:59.563Z,1018.20
2019-05-17T04:08:03.617Z,1018.28
2019-05-17T04:09:03.746Z,1018.24
2019-05-17T04:10:04.418Z,1018.22
2019-05-17T04:11:17.599Z,1018.30
2019-05-17T04:12:03.519Z,1018.27
2019-05-17T04:13:04.721Z,1018.25
2019-05-17T04:14:04.744Z,1018.26
2019-05-17T04:15:05.358Z,1018.26
2019-05-17T04:16:08.877Z,1018.19
2019-05-17T04:17:06.536Z,1018.16
2019-05-17T04:18:07.117Z,1018.18
2019-05-17T04:19:07.737Z,1018.18
2019-05-17T04:20:08.333Z,1018.19
2019-05-17T04:21:12.302Z,1018.21
2019-05-17T04:22:09.711Z,1018.13
2019-05-17T04:23:12.782Z,1018.14
2019-05-17T04:24:12.721Z,1018.11
2019-05-17T04:25:14.139Z,1018.14
2019-05-17T04:26:14.935Z,1018.06
2019-05-17T04:27:15.527Z,1018.09
2019-05-17T04:28:16.095Z,1018.05
2019-05-17T04:29:16.666Z,1018.15
2019-05-17T04:30:17.238Z,1018.18
2019-05-17T04:31:17.803Z,1018.23
2019-05-17T04:32:18.376Z,1018.18
2019-05-17T04:33:18.944Z,1018.19
2019-05-17T04:34:22.231Z,1018.21
2019-05-17T04:35:23.002Z,1018.23
2019-05-17T04:36:22.617Z,1018.21
2019-05-17T04:37:23.020Z,1018.27
2019-05-17T04:38:23.859Z,1018.21
2019-05-17T04:39:24.586Z,1018.28
2019-05-17T04:40:25.177Z,1018.32
2019-05-17T04:41:40.170Z,1018.24
2019-05-17T04:42:27.325Z,1018.28
2019-05-17T04:43:27.924Z,1018.31
2019-05-17T04:44:28.543Z,1018.25
2019-05-17T04:45:29.157Z,1018.28
2019-05-17T04:47:45.182Z,1018.34
2019-05-17T04:48:45.763Z,1018.23
2019-05-17T04:49:46.406Z,1018.27
2019-05-17T04:50:47.200Z,1018.17
2019-05-17T04:51:47.808Z,1018.36
2019-05-17T04:52:48.410Z,1018.26
2019-05-17T04:53:52.710Z,1018.36
2019-05-17T04:54:53.362Z,1018.29
2019-05-17T04:55:53.763Z,1018.37
2019-05-17T04:56:53.225Z,1018.29
2019-05-17T04:57:53.159Z,1018.36
2019-05-17T04:58:54.304Z,1018.36
2019-05-17T04:59:54.771Z,1018.40
2019-05-17T05:00:55.361Z,1018.39
2019-05-17T05:01:55.956Z,1018.33
2019-05-17T05:02:56.526Z,1018.39
2019-05-17T05:03:57.106Z,1018.40
2019-05-17T05:04:57.710Z,1018.33
2019-05-17T05:05:58.280Z,1018.40
2019-05-17T05:06:58.852Z,1018.34
2019-05-17T05:08:02.652Z,1018.30
2019-05-17T05:09:02.592Z,1018.40
2019-05-17T05:10:02.965Z,1018.35
2019-05-17T05:11:04.152Z,1018.44
2019-05-17T05:12:06.161Z,1018.43
2019-05-17T05:13:03.646Z,1018.37
2019-05-17T05:14:04.276Z,1018.40
2019-05-17T05:16:22.551Z,1018.44
2019-05-17T05:17:22.181Z,1018.45
2019-05-17T05:18:22.077Z,1018.43
2019-05-17T05:19:22.876Z,1018.42
2019-05-17T05:20:23.447Z,1018.50
2019-05-17T05:21:24.217Z,1018.54
2019-05-17T05:22:24.786Z,1018.51
2019-05-17T05:23:25.355Z,1018.51
2019-05-17T05:24:25.925Z,1018.52
2019-05-17T05:25:26.496Z,1018.54
2019-05-17T05:26:27.108Z,1018.46
2019-05-17T05:28:43.145Z,1018.45
2019-05-17T05:29:43.759Z,1018.51
2019-05-17T05:30:44.533Z,1018.55
2019-05-17T05:31:45.160Z,1018.52
2019-05-17T05:32:45.768Z,1018.55
2019-05-17T05:35:03.126Z,1018.48
2019-05-17T05:36:02.608Z,1018.54
2019-05-17T05:37:03.220Z,1018.50
2019-05-17T05:38:03.795Z,1018.53
2019-05-17T05:39:04.401Z,1018.51
2019-05-17T05:40:04.981Z,1018.60
2019-05-17T05:41:05.586Z,1018.62
2019-05-17T05:42:10.295Z,1018.54
2019-05-17T05:43:06.771Z,1018.67
2019-05-17T05:44:07.388Z,1018.62
2019-05-17T05:45:08.156Z,1018.62
2019-05-17T05:46:08.726Z,1018.70
2019-05-17T05:47:11.471Z,1018.67
2019-05-17T05:49:25.369Z,1018.81
2019-05-17T05:50:26.145Z,1018.69
2019-05-17T05:52:42.697Z,1018.74
2019-05-17T05:53:42.785Z,1018.78
2019-05-17T05:54:43.397Z,1018.82
2019-05-17T05:55:44.186Z,1018.76
2019-05-17T05:56:44.784Z,1018.78
2019-05-17T05:57:45.352Z,1018.81
2019-05-17T05:58:46.127Z,1018.86
2019-05-17T05:59:46.741Z,1018.79
2019-05-17T06:00:47.323Z,1018.84
2019-05-17T06:01:47.923Z,1018.83
2019-05-17T06:02:48.536Z,1018.91
2019-05-17T06:03:49.107Z,1018.91
2019-05-17T06:04:51.873Z,1018.95
2019-05-17T06:05:52.574Z,1018.93
2019-05-17T06:06:52.233Z,1019.01
2019-05-17T06:07:52.497Z,1018.91
2019-05-17T06:08:53.076Z,1018.93
2019-05-17T06:09:53.707Z,1018.97
2019-05-17T06:10:54.308Z,1018.92
2019-05-17T06:11:54.920Z,1018.91
2019-05-17T06:12:55.501Z,1018.88
2019-05-17T06:13:56.114Z,1018.90
2019-05-17T06:14:56.720Z,1018.79
2019-05-17T06:15:57.333Z,1018.86
2019-05-17T06:16:57.903Z,1018.85
2019-05-17T06:17:58.718Z,1018.88
2019-05-17T06:18:59.288Z,1018.88
2019-05-17T06:20:02.402Z,1018.99
2019-05-17T06:22:15.914Z,1018.99
2019-05-17T06:23:16.503Z,1019.00
2019-05-17T06:24:17.071Z,1018.97
2019-05-17T06:25:17.646Z,1018.93
2019-05-17T06:26:18.308Z,1018.96
2019-05-17T06:27:18.822Z,1019.01
2019-05-17T06:28:19.393Z,1019.00
2019-05-17T06:29:22.032Z,1018.96
2019-05-17T06:30:22.103Z,1018.92
2019-05-17T06:31:24.088Z,1018.99
2019-05-17T06:32:24.232Z,1018.99
2019-05-17T06:33:30.441Z,1019.05
2019-05-17T06:34:26.360Z,1018.91
2019-05-17T06:35:26.930Z,1018.99
2019-05-17T06:36:27.502Z,1019.01
2019-05-17T06:37:28.078Z,1019.05
2019-05-17T06:38:28.640Z,1018.98
2019-05-17T06:39:29.211Z,1018.98
2019-05-17T06:40:32.167Z,1018.96
2019-05-17T06:41:32.354Z,1018.96
2019-05-17T06:42:40.364Z,1018.89
2019-05-17T06:43:34.472Z,1018.91
2019-05-17T06:44:35.044Z,1019.04
2019-05-17T06:45:35.616Z,1018.95
2019-05-17T06:46:36.187Z,1019.04
2019-05-17T06:47:36.756Z,1019.01
2019-05-17T06:48:37.344Z,1019.07
2019-05-17T06:49:37.946Z,1018.96
2019-05-17T06:50:38.520Z,1019.05
2019-05-17T06:51:39.091Z,1019.08
2019-05-17T06:52:39.659Z,1019.03
2019-05-17T06:53:40.230Z,1019.03
2019-05-17T06:54:41.735Z,1019.07
2019-05-17T06:55:42.809Z,1019.08
2019-05-17T06:56:43.388Z,1019.11
2019-05-17T06:57:43.956Z,1019.05
2019-05-17T06:58:44.525Z,1019.07
2019-05-17T06:59:45.097Z,1019.08
2019-05-17T07:00:45.666Z,1019.16
2019-05-17T07:01:46.235Z,1019.17
2019-05-17T07:02:46.807Z,1019.16
2019-05-17T07:03:49.423Z,1019.12
2019-05-17T07:04:50.830Z,1019.12
2019-05-17T07:05:50.508Z,1019.12
2019-05-17T07:06:51.077Z,1019.06
2019-05-17T07:07:51.647Z,1019.06
2019-05-17T07:08:52.216Z,1019.03
2019-05-17T07:09:52.789Z,1019.08
2019-05-17T07:10:53.359Z,1019.15
2019-05-17T07:11:53.927Z,1019.18
2019-05-17T07:12:58.769Z,1019.08
2019-05-17T07:13:56.063Z,1019.28
2019-05-17T07:14:58.336Z,1019.18
2019-05-17T07:15:59.682Z,1019.18
2019-05-17T07:16:59.764Z,1019.03
2019-05-17T07:18:00.338Z,1019.06
2019-05-17T07:19:00.905Z,1019.08
2019-05-17T07:20:01.476Z,1019.17
2019-05-17T07:21:03.511Z,1019.16
2019-05-17T07:22:03.610Z,1019.11
2019-05-17T07:23:04.179Z,1019.12
2019-05-17T07:24:04.750Z,1019.12
2019-05-17T07:25:05.319Z,1019.22
2019-05-17T07:26:05.891Z,1019.18
2019-05-17T07:27:06.460Z,1019.18
2019-05-17T07:28:07.030Z,1019.28
2019-05-17T07:29:09.870Z,1019.24
2019-05-17T07:30:09.977Z,1019.30
2019-05-17T07:31:10.616Z,1019.39
2019-05-17T07:32:11.179Z,1019.34
2019-05-17T07:33:11.750Z,1019.32
2019-05-17T07:34:12.321Z,1019.49
2019-05-17T07:35:12.891Z,1019.33
2019-05-17T07:36:13.463Z,1019.48
2019-05-17T07:37:14.034Z,1019.35
2019-05-17T07:38:14.608Z,1019.44
2019-05-17T07:39:15.178Z,1019.50
2019-05-17T07:40:15.750Z,1019.47
2019-05-17T07:41:16.322Z,1019.55
2019-05-17T07:42:19.441Z,1019.47
2019-05-17T07:43:17.540Z,1019.47
2019-05-17T07:44:20.394Z,1019.45
2019-05-17T07:45:20.365Z,1019.48
2019-05-17T07:46:20.966Z,1019.49
2019-05-17T07:47:21.555Z,1019.49
2019-05-17T07:48:22.127Z,1019.53
2019-05-17T07:49:22.697Z,1019.56
2019-05-17T07:50:23.266Z,1019.56
2019-05-17T07:51:23.838Z,1019.50
2019-05-17T07:52:24.409Z,1019.53
2019-05-17T07:53:24.979Z,1019.60
2019-05-17T07:54:25.550Z,1019.60
2019-05-17T07:55:26.122Z,1019.57
2019-05-17T07:56:26.693Z,1019.56
2019-05-17T07:57:29.787Z,1019.58
2019-05-17T07:58:29.963Z,1019.68
2019-05-17T07:59:30.393Z,1019.59
2019-05-17T08:00:30.963Z,1019.65
2019-05-17T08:01:31.534Z,1019.69
2019-05-17T08:02:32.105Z,1019.71
2019-05-17T08:03:32.680Z,1019.60
2019-05-17T08:04:33.247Z,1019.61
2019-05-17T08:05:33.816Z,1019.62
2019-05-17T08:06:34.389Z,1019.67
2019-05-17T08:07:34.958Z,1019.64
2019-05-17T08:08:35.528Z,1019.74
2019-05-17T08:09:36.101Z,1019.76
2019-05-17T08:10:36.674Z,1019.73
2019-05-17T08:11:39.518Z,1019.76
2019-05-17T08:12:40.537Z,1019.77
2019-05-17T08:13:40.381Z,1019.74
2019-05-17T08:14:40.948Z,1019.80
2019-05-17T08:15:41.520Z,1019.79
2019-05-17T08:16:42.091Z,1019.82
2019-05-17T08:17:42.661Z,1019.75
2019-05-17T08:18:43.234Z,1019.71
2019-05-17T08:19:43.803Z,1019.77
2019-05-17T08:20:44.372Z,1019.83
2019-05-17T08:21:44.943Z,1019.85
2019-05-17T08:22:45.513Z,1019.89
2019-05-17T08:23:46.085Z,1019.87
2019-05-17T08:24:46.656Z,1019.96
2019-05-17T08:25:52.641Z,1019.92
2019-05-17T08:26:50.249Z,1019.86
2019-05-17T08:27:50.497Z,1019.95
2019-05-17T08:28:51.021Z,1019.95
2019-05-17T08:29:51.593Z,1020.07
2019-05-17T08:30:52.207Z,1020.02
2019-05-17T08:31:52.776Z,1020.02
2019-05-17T08:32:53.348Z,1019.91
2019-05-17T08:33:53.918Z,1019.95
2019-05-17T08:34:54.488Z,1019.99
2019-05-17T08:35:55.059Z,1020.00
2019-05-17T08:36:55.631Z,1020.07
2019-05-17T08:37:56.200Z,1019.98
2019-05-17T08:38:56.773Z,1020.01
2019-05-17T08:39:59.869Z,1020.02
2019-05-17T08:41:00.502Z,1020.06
2019-05-17T08:42:01.315Z,1020.03
2019-05-17T08:43:01.078Z,1020.07
2019-05-17T08:44:01.649Z,1020.06
2019-05-17T08:45:02.220Z,1020.09
2019-05-17T08:46:02.921Z,1020.09
2019-05-17T08:47:03.514Z,1020.01
2019-05-17T08:48:04.086Z,1020.05
2019-05-17T08:49:04.658Z,1020.07
2019-05-17T08:50:05.231Z,1020.16
2019-05-17T08:51:05.800Z,1020.00
2019-05-17T08:52:06.368Z,1020.02
2019-05-17T08:53:06.937Z,1020.05
2019-05-17T08:54:07.509Z,1020.07
2019-05-17T08:55:09.642Z,1020.08
2019-05-17T08:56:10.143Z,1020.04
2019-05-17T08:57:10.252Z,1020.06
2019-05-17T08:58:10.824Z,1020.07
2019-05-17T08:59:11.394Z,1020.02
2019-05-17T09:00:11.968Z,1020.15
2019-05-17T09:01:12.537Z,1020.08
2019-05-17T09:02:13.108Z,1020.03
2019-05-17T09:03:13.678Z,1020.10
2019-05-17T09:04:14.250Z,1019.98
2019-05-17T09:05:14.822Z,1020.11
2019-05-17T09:06:15.395Z,1019.94
2019-05-17T09:07:16.006Z,1020.06
2019-05-17T09:08:16.581Z,1019.99
2019-05-17T09:09:17.149Z,1020.03
2019-05-17T09:10:20.554Z,1020.03
2019-05-17T09:11:19.690Z,1020.00
2019-05-17T09:12:20.678Z,1020.08
2019-05-17T09:13:21.294Z,1020.08
2019-05-17T09:14:21.867Z,1020.03
2019-05-17T09:15:22.437Z,1020.03
2019-05-17T09:16:23.010Z,1020.06
2019-05-17T09:17:23.581Z,1020.05
2019-05-17T09:18:24.152Z,1020.09
2019-05-17T09:19:24.725Z,1020.06
2019-05-17T09:20:25.299Z,1020.08
2019-05-17T09:21:25.867Z,1020.06
2019-05-17T09:22:26.436Z,1020.06
2019-05-17T09:23:27.009Z,1020.07
2019-05-17T09:24:29.900Z,1020.08
2019-05-17T09:25:30.209Z,1020.03
2019-05-17T09:26:29.756Z,1020.10
2019-05-17T09:27:30.326Z,1020.04
2019-05-17T09:28:30.899Z,1020.09
2019-05-17T09:29:31.470Z,1020.15
2019-05-17T09:30:32.041Z,1020.11
2019-05-17T09:31:32.614Z,1020.13
2019-05-17T09:32:33.230Z,1020.24
2019-05-17T09:33:33.800Z,1020.23
2019-05-17T09:34:34.369Z,1020.27
2019-05-17T09:35:34.942Z,1020.25
2019-05-17T09:36:35.512Z,1020.29
2019-05-17T09:37:36.123Z,1020.25
2019-05-17T09:38:36.659Z,1020.28
2019-05-17T09:39:37.233Z,1020.33
2019-05-17T09:40:40.333Z,1020.41
2019-05-17T09:41:39.818Z,1020.28
2019-05-17T09:42:41.349Z,1020.36
2019-05-17T09:43:42.016Z,1020.40
2019-05-17T09:44:42.587Z,1020.28
2019-05-17T09:45:43.163Z,1020.41
2019-05-17T09:46:43.734Z,1020.36
2019-05-17T09:47:44.303Z,1020.43
2019-05-17T09:48:46.916Z,1020.41
2019-05-17T09:49:46.440Z,1020.43
2019-05-17T09:50:47.008Z,1020.43
2019-05-17T09:51:49.549Z,1020.36
2019-05-17T09:52:49.567Z,1020.34
2019-05-17T09:53:49.826Z,1020.33
2019-05-17T09:54:50.634Z,1020.19
2019-05-17T09:55:51.170Z,1020.36
2019-05-17T09:56:51.743Z,1020.26
2019-05-17T09:57:52.314Z,1020.33
2019-05-17T09:58:52.887Z,1020.48
2019-05-17T09:59:55.913Z,1020.42
2019-05-17T10:00:54.071Z,1020.35
2019-05-17T10:01:54.641Z,1020.43
2019-05-17T10:02:55.211Z,1020.36
2019-05-17T10:03:55.785Z,1020.34
2019-05-17T10:04:56.357Z,1020.33
2019-05-17T10:05:56.928Z,1020.35
2019-05-17T10:06:59.371Z,1020.30
2019-05-17T10:08:00.031Z,1020.28
2019-05-17T10:09:00.199Z,1020.38
2019-05-17T10:10:00.868Z,1020.38
2019-05-17T10:11:08.352Z,1020.41
2019-05-17T10:12:03.008Z,1020.43
2019-05-17T10:13:03.578Z,1020.39
2019-05-17T10:14:04.152Z,1020.45
2019-05-17T10:15:04.725Z,1020.34
2019-05-17T10:16:05.293Z,1020.33
2019-05-17T10:17:05.871Z,1020.40
2019-05-17T10:18:06.485Z,1020.40
2019-05-17T10:19:09.433Z,1020.36
2019-05-17T10:20:10.747Z,1020.39
2019-05-17T10:21:10.590Z,1020.41
2019-05-17T10:22:11.146Z,1020.37
2019-05-17T10:23:11.720Z,1020.33
2019-05-17T10:24:12.312Z,1020.35
2019-05-17T10:25:12.858Z,1020.42
2019-05-17T10:26:13.431Z,1020.32
2019-05-17T10:27:14.654Z,1020.34
2019-05-17T10:28:15.329Z,1020.33
2019-05-17T10:29:15.900Z,1020.34
2019-05-17T10:30:16.472Z,1020.37
2019-05-17T10:31:17.044Z,1020.35
2019-05-17T10:32:20.288Z,1020.31
2019-05-17T10:33:20.002Z,1020.23
2019-05-17T10:34:20.678Z,1020.23
2019-05-17T10:35:21.252Z,1020.30
2019-05-17T10:36:21.824Z,1020.25
2019-05-17T10:37:22.395Z,1020.31
2019-05-17T10:38:22.968Z,1020.34
2019-05-17T10:39:23.542Z,1020.27
2019-05-17T10:40:24.158Z,1020.26
2019-05-17T10:41:24.732Z,1020.29
2019-05-17T10:42:25.303Z,1020.31
2019-05-17T10:43:25.878Z,1020.31
2019-05-17T10:44:41.011Z,1020.29
2019-05-17T10:45:30.339Z,1020.27
2019-05-17T10:46:30.115Z,1020.27
2019-05-17T10:47:30.739Z,1020.20
2019-05-17T10:48:31.316Z,1020.25
2019-05-17T10:49:31.886Z,1020.22
2019-05-17T10:50:32.457Z,1020.27
2019-05-17T10:51:33.029Z,1020.16
2019-05-17T10:52:33.602Z,1020.30
2019-05-17T10:53:34.175Z,1020.24
2019-05-17T10:54:34.746Z,1020.36
2019-05-17T10:55:35.332Z,1020.31
2019-05-17T10:56:35.906Z,1020.22
2019-05-17T10:57:36.474Z,1020.28
2019-05-17T10:58:37.046Z,1020.28
2019-05-17T10:59:37.619Z,1020.30
2019-05-17T11:00:40.964Z,1020.26
2019-05-17T11:01:39.761Z,1020.26
2019-05-17T11:02:40.339Z,1020.30
2019-05-17T11:03:40.959Z,1020.30
2019-05-17T11:04:41.525Z,1020.31
2019-05-17T11:05:42.096Z,1020.38
2019-05-17T11:06:42.671Z,1020.42
2019-05-17T11:07:43.242Z,1020.49
2019-05-17T11:08:43.814Z,1020.42
2019-05-17T11:09:44.386Z,1020.47
2019-05-17T11:10:44.958Z,1020.45
2019-05-17T11:11:45.533Z,1020.37
2019-05-17T11:12:46.104Z,1020.40
2019-05-17T11:13:46.676Z,1020.44
2019-05-17T11:14:55.815Z,1020.47
2019-05-17T11:15:48.860Z,1020.47
2019-05-17T11:16:49.433Z,1020.43
2019-05-17T11:17:50.004Z,1020.45
2019-05-17T11:18:50.581Z,1020.38
2019-05-17T11:19:51.148Z,1020.36
2019-05-17T11:20:51.722Z,1020.47
2019-05-17T11:21:52.293Z,1020.50
2019-05-17T11:22:52.865Z,1020.46
2019-05-17T11:23:53.483Z,1020.50
2019-05-17T11:24:54.065Z,1020.47
2019-05-17T11:25:54.674Z,1020.48
2019-05-17T11:26:55.242Z,1020.43
2019-05-17T11:27:55.813Z,1020.43
2019-05-17T11:28:56.388Z,1020.45
2019-05-17T11:29:56.962Z,1020.47
2019-05-17T11:30:57.576Z,1020.40
2019-05-17T11:31:58.168Z,1020.39
2019-05-17T11:32:58.765Z,1020.45
2019-05-17T11:33:59.338Z,1020.35
2019-05-17T11:34:59.909Z,1020.38
2019-05-17T11:36:00.480Z,1020.33
2019-05-17T11:37:01.053Z,1020.33
2019-05-17T11:38:01.628Z,1020.37
2019-05-17T11:39:02.203Z,1020.39
2019-05-17T11:40:02.771Z,1020.40
2019-05-17T11:41:20.021Z,1020.49
2019-05-17T11:42:04.908Z,1020.45
2019-05-17T11:43:05.482Z,1020.44
2019-05-17T11:44:06.054Z,1020.54
2019-05-17T11:45:06.639Z,1020.44
2019-05-17T11:46:07.201Z,1020.41
2019-05-17T11:47:07.770Z,1020.39
2019-05-17T11:48:08.341Z,1020.39
2019-05-17T11:49:08.915Z,1020.36
2019-05-17T11:50:09.491Z,1020.33
2019-05-17T11:51:10.059Z,1020.34
2019-05-17T11:52:10.636Z,1020.28
2019-05-17T11:53:11.204Z,1020.33
2019-05-17T11:54:11.777Z,1020.37
2019-05-17T11:55:12.351Z,1020.36
2019-05-17T11:56:12.919Z,1020.38
2019-05-17T11:57:13.502Z,1020.36
2019-05-17T11:58:14.109Z,1020.36
2019-05-17T11:59:14.683Z,1020.36
2019-05-17T12:00:15.256Z,1020.35
2019-05-17T12:01:15.827Z,1020.31
2019-05-17T12:02:16.402Z,1020.35
2019-05-17T12:03:17.018Z,1020.31
2019-05-17T12:04:17.593Z,1020.35
2019-05-17T12:05:18.163Z,1020.40
2019-05-17T12:06:18.734Z,1020.40
2019-05-17T12:07:19.309Z,1020.36
2019-05-17T12:08:19.883Z,1020.36
2019-05-17T12:09:20.495Z,1020.37
2019-05-17T12:10:21.066Z,1020.32
2019-05-17T12:11:21.638Z,1020.37
2019-05-17T12:12:22.210Z,1020.35
2019-05-17T12:13:22.782Z,1020.35
2019-05-17T12:14:23.352Z,1020.38
2019-05-17T12:15:23.927Z,1020.42
2019-05-17T12:16:24.499Z,1020.45
2019-05-17T12:17:25.072Z,1020.42
2019-05-17T12:18:25.645Z,1020.35
2019-05-17T12:19:26.258Z,1020.36
2019-05-17T12:20:26.831Z,1020.38
2019-05-17T12:21:27.404Z,1020.41
2019-05-17T12:22:27.975Z,1020.33